createdAt,value
2019-02-25T00:00:56.751Z,38.38
2019-02-25T00:01:37.318Z,38.34
2019-02-25T00:02:24.769Z,38.39
2019-02-25T00:03:00.642Z,38.39
2019-02-25T00:03:36.060Z,38.41
2019-02-25T00:04:11.797Z,38.36
2019-02-25T00:04:47.490Z,38.38
2019-02-25T00:05:23.109Z,38.35
2019-02-25T00:05:58.815Z,38.34
2019-02-25T00:06:34.201Z,38.36
2019-02-25T00:07:09.629Z,38.41
2019-02-25T00:07:45.021Z,38.47
2019-02-25T00:08:20.414Z,38.39
2019-02-25T00:08:55.821Z,38.31
2019-02-25T00:09:31.218Z,38.21
2019-02-25T00:10:07.232Z,38.26
2019-02-25T00:10:42.639Z,38.20
2019-02-25T00:11:18.325Z,38.11
2019-02-25T00:11:54.024Z,38.10
2019-02-25T00:12:29.448Z,38.08
2019-02-25T00:13:05.126Z,38.04
2019-02-25T00:13:40.579Z,38.05
2019-02-25T00:14:16.232Z,38.06
2019-02-25T00:14:51.625Z,38.15
2019-02-25T00:15:27.339Z,38.13
2019-02-25T00:16:03.089Z,37.90
2019-02-25T00:16:38.523Z,37.92
2019-02-25T00:17:14.186Z,37.87
2019-02-25T00:17:50.200Z,37.87
2019-02-25T00:18:25.606Z,37.84
2019-02-25T00:19:01.018Z,37.89
2019-02-25T00:19:36.452Z,38.00
2019-02-25T00:20:11.895Z,38.01
2019-02-25T00:20:47.282Z,37.98
2019-02-25T00:21:23.295Z,37.97
2019-02-25T00:21:58.686Z,38.00
2019-02-25T00:22:34.156Z,37.85
2019-02-25T00:23:09.547Z,37.81
2019-02-25T00:23:45.203Z,37.75
2019-02-25T00:24:20.672Z,37.56
2019-02-25T00:24:56.717Z,37.63
2019-02-25T00:25:32.436Z,37.71
2019-02-25T00:26:08.091Z,37.73
2019-02-25T00:26:43.497Z,37.83
2019-02-25T00:27:19.476Z,37.94
2019-02-25T00:27:54.893Z,37.93
2019-02-25T00:28:30.558Z,37.77
2019-02-25T00:29:05.948Z,37.85
2019-02-25T00:29:41.605Z,37.86
2019-02-25T00:30:17.097Z,37.89
2019-02-25T00:30:52.765Z,37.91
2019-02-25T00:31:28.452Z,37.81
2019-02-25T00:32:03.848Z,37.88
2019-02-25T00:32:39.291Z,37.54
2019-02-25T00:33:14.669Z,37.47
2019-02-25T00:33:50.095Z,37.53
2019-02-25T00:34:25.492Z,37.60
2019-02-25T00:35:01.140Z,37.72
2019-02-25T00:35:36.871Z,37.80
2019-02-25T00:36:12.260Z,37.80
2019-02-25T00:36:47.651Z,37.90
2019-02-25T00:37:23.060Z,37.88
2019-02-25T00:37:58.463Z,37.82
2019-02-25T00:38:34.193Z,37.84
2019-02-25T00:39:09.757Z,37.81
2019-02-25T00:39:45.460Z,37.80
2019-02-25T00:40:20.859Z,37.78
2019-02-25T00:40:56.261Z,37.59
2019-02-25T00:41:31.660Z,37.49
2019-02-25T00:42:07.313Z,37.38
2019-02-25T00:42:43.089Z,37.32
2019-02-25T00:43:18.487Z,37.26
2019-02-25T00:43:54.196Z,37.29
2019-02-25T00:44:29.933Z,37.30
2019-02-25T00:45:05.825Z,37.25
2019-02-25T00:45:41.204Z,37.17
2019-02-25T00:46:16.905Z,37.17
2019-02-25T00:46:52.792Z,36.82
2019-02-25T00:47:28.226Z,36.56
2019-02-25T00:48:03.655Z,36.63
2019-02-25T00:48:39.221Z,36.62
2019-02-25T00:49:14.873Z,36.48
2019-02-25T00:49:50.518Z,36.34
2019-02-25T00:50:25.918Z,36.32
2019-02-25T00:51:01.316Z,36.30
2019-02-25T00:51:36.718Z,36.27
2019-02-25T00:52:12.093Z,36.12
2019-02-25T00:52:47.804Z,36.06
2019-02-25T00:53:23.484Z,36.09
2019-02-25T00:53:59.200Z,35.81
2019-02-25T00:54:34.697Z,35.88
2019-02-25T00:55:10.416Z,35.83
2019-02-25T00:55:45.908Z,35.42
2019-02-25T00:56:21.352Z,35.32
2019-02-25T00:56:56.844Z,35.29
2019-02-25T00:57:32.321Z,35.14
2019-02-25T00:58:07.951Z,35.11
2019-02-25T00:58:43.670Z,35.13
2019-02-25T00:59:19.383Z,35.19
2019-02-25T00:59:54.816Z,35.10
2019-02-25T01:00:30.231Z,35.03
2019-02-25T01:01:06.092Z,35.03
2019-02-25T01:01:41.491Z,35.18
2019-02-25T01:02:16.911Z,35.04
2019-02-25T01:02:52.663Z,34.94
2019-02-25T01:03:28.158Z,34.94
2019-02-25T01:04:03.849Z,34.81
2019-02-25T01:04:39.334Z,34.89
2019-02-25T01:05:15.813Z,34.96
2019-02-25T01:05:51.186Z,34.97
2019-02-25T01:06:26.625Z,34.77
2019-02-25T01:07:02.280Z,34.83
2019-02-25T01:07:37.650Z,34.73
2019-02-25T01:08:13.171Z,34.83
2019-02-25T01:08:48.898Z,34.90
2019-02-25T01:09:24.575Z,34.78
2019-02-25T01:10:02.288Z,34.87
2019-02-25T01:10:37.701Z,34.87
2019-02-25T01:11:13.067Z,34.90
2019-02-25T01:11:48.749Z,34.97
2019-02-25T01:12:24.146Z,35.05
2019-02-25T01:13:00.231Z,34.88
2019-02-25T01:13:35.637Z,34.67
2019-02-25T01:14:11.021Z,34.63
2019-02-25T01:14:46.746Z,34.50
2019-02-25T01:15:22.146Z,34.30
2019-02-25T01:15:57.865Z,34.35
2019-02-25T01:16:33.295Z,34.41
2019-02-25T01:17:08.676Z,34.54
2019-02-25T01:17:44.606Z,34.47
2019-02-25T01:18:20.069Z,34.51
2019-02-25T01:18:55.528Z,34.46
2019-02-25T01:19:31.225Z,34.45
2019-02-25T01:20:06.931Z,34.59
2019-02-25T01:20:42.863Z,34.63
2019-02-25T01:21:18.285Z,35.03
2019-02-25T01:21:53.699Z,34.77
2019-02-25T01:22:29.178Z,34.77
2019-02-25T01:23:04.607Z,34.82
2019-02-25T01:23:40.108Z,34.79
2019-02-25T01:24:15.498Z,34.67
2019-02-25T01:24:51.218Z,34.88
2019-02-25T01:25:26.678Z,34.88
2019-02-25T01:26:02.388Z,34.93
2019-02-25T01:26:37.785Z,34.63
2019-02-25T01:27:13.186Z,34.63
2019-02-25T01:27:48.949Z,34.83
2019-02-25T01:28:24.770Z,35.01
2019-02-25T01:29:00.436Z,35.05
2019-02-25T01:29:36.078Z,35.02
2019-02-25T01:30:12.372Z,35.00
2019-02-25T01:30:48.051Z,35.06
2019-02-25T01:31:23.722Z,35.22
2019-02-25T01:31:59.380Z,35.22
2019-02-25T01:32:35.080Z,35.22
2019-02-25T01:33:10.500Z,35.25
2019-02-25T01:33:46.210Z,35.15
2019-02-25T01:34:21.698Z,35.19
2019-02-25T01:34:57.338Z,35.22
2019-02-25T01:35:32.724Z,35.31
2019-02-25T01:36:08.132Z,35.25
2019-02-25T01:36:43.525Z,35.31
2019-02-25T01:37:18.912Z,35.08
2019-02-25T01:37:54.626Z,35.08
2019-02-25T01:38:30.631Z,35.31
2019-02-25T01:39:08.132Z,35.30
2019-02-25T01:39:44.119Z,35.47
2019-02-25T01:40:19.515Z,35.43
2019-02-25T01:40:54.900Z,35.42
2019-02-25T01:41:30.370Z,35.41
2019-02-25T01:42:06.023Z,35.49
2019-02-25T01:42:41.423Z,35.46
2019-02-25T01:43:17.110Z,35.44
2019-02-25T01:43:52.504Z,35.44
2019-02-25T01:44:27.890Z,35.44
2019-02-25T01:45:03.593Z,35.27
2019-02-25T01:45:39.247Z,35.27
2019-02-25T01:46:14.696Z,35.16
2019-02-25T01:46:50.356Z,35.24
2019-02-25T01:47:26.006Z,35.23
2019-02-25T01:48:01.379Z,35.23
2019-02-25T01:48:37.091Z,35.11
2019-02-25T01:49:12.521Z,35.11
2019-02-25T01:49:48.190Z,35.18
2019-02-25T01:50:23.828Z,35.18
2019-02-25T01:50:59.564Z,35.29
2019-02-25T01:51:34.964Z,35.29
2019-02-25T01:52:10.624Z,34.92
2019-02-25T01:52:46.288Z,34.83
2019-02-25T01:53:22.119Z,35.01
2019-02-25T01:53:57.506Z,35.06
2019-02-25T01:54:32.968Z,34.95
2019-02-25T01:55:08.949Z,35.07
2019-02-25T01:55:44.637Z,35.01
2019-02-25T01:56:20.036Z,35.04
2019-02-25T01:56:55.438Z,35.13
2019-02-25T01:57:30.848Z,35.22
2019-02-25T01:58:06.269Z,35.31
2019-02-25T01:58:41.714Z,35.11
2019-02-25T01:59:17.475Z,35.03
2019-02-25T01:59:52.858Z,35.12
2019-02-25T02:00:28.252Z,34.93
2019-02-25T02:01:03.794Z,34.81
2019-02-25T02:01:39.296Z,34.86
2019-02-25T02:02:14.795Z,34.91
2019-02-25T02:02:50.223Z,35.00
2019-02-25T02:03:25.657Z,35.14
2019-02-25T02:04:01.307Z,35.20
2019-02-25T02:04:36.953Z,35.27
2019-02-25T02:05:12.452Z,35.21
2019-02-25T02:05:48.115Z,35.01
2019-02-25T02:06:23.767Z,35.29
2019-02-25T02:06:59.401Z,35.29
2019-02-25T02:07:35.175Z,35.32
2019-02-25T02:08:10.608Z,35.33
2019-02-25T02:08:46.163Z,35.33
2019-02-25T02:09:21.612Z,35.28
2019-02-25T02:09:57.025Z,35.26
2019-02-25T02:10:32.700Z,35.33
2019-02-25T02:11:08.085Z,35.39
2019-02-25T02:11:43.805Z,35.48
2019-02-25T02:12:19.196Z,35.66
2019-02-25T02:12:54.591Z,35.53
2019-02-25T02:13:30.017Z,35.54
2019-02-25T02:14:05.482Z,35.47
2019-02-25T02:14:40.865Z,35.56
2019-02-25T02:15:16.521Z,35.42
2019-02-25T02:15:51.909Z,35.47
2019-02-25T02:16:27.304Z,35.66
2019-02-25T02:17:02.966Z,35.61
2019-02-25T02:17:38.646Z,35.75
2019-02-25T02:18:14.088Z,35.85
2019-02-25T02:18:49.774Z,35.65
2019-02-25T02:19:25.443Z,35.58
2019-02-25T02:20:00.819Z,35.76
2019-02-25T02:20:36.199Z,35.71
2019-02-25T02:21:12.107Z,35.71
2019-02-25T02:21:47.801Z,35.75
2019-02-25T02:22:23.192Z,35.70
2019-02-25T02:22:58.599Z,35.59
2019-02-25T02:23:34.030Z,35.68
2019-02-25T02:24:09.694Z,35.66
2019-02-25T02:24:45.141Z,35.75
2019-02-25T02:25:20.519Z,35.82
2019-02-25T02:25:55.961Z,35.77
2019-02-25T02:26:31.338Z,35.83
2019-02-25T02:27:07.001Z,35.73
2019-02-25T02:27:42.946Z,35.53
2019-02-25T02:28:18.626Z,35.60
2019-02-25T02:28:54.057Z,35.57
2019-02-25T02:29:29.699Z,35.32
2019-02-25T02:30:06.474Z,35.11
2019-02-25T02:30:41.883Z,35.05
2019-02-25T02:31:17.397Z,35.08
2019-02-25T02:31:52.836Z,34.98
2019-02-25T02:32:28.231Z,34.95
2019-02-25T02:33:04.019Z,34.94
2019-02-25T02:33:39.958Z,34.79
2019-02-25T02:34:15.388Z,34.75
2019-02-25T02:34:51.055Z,34.84
2019-02-25T02:35:26.719Z,34.97
2019-02-25T02:36:02.111Z,35.01
2019-02-25T02:36:37.789Z,34.76
2019-02-25T02:37:13.283Z,34.66
2019-02-25T02:37:48.966Z,34.65
2019-02-25T02:38:24.358Z,34.78
2019-02-25T02:39:00.067Z,34.90
2019-02-25T02:39:35.462Z,35.04
2019-02-25T02:40:12.509Z,35.22
2019-02-25T02:40:47.893Z,35.11
2019-02-25T02:41:23.287Z,35.13
2019-02-25T02:42:19.260Z,35.18
2019-02-25T02:42:55.921Z,35.24
2019-02-25T02:43:31.323Z,35.26
2019-02-25T02:44:07.025Z,35.10
2019-02-25T02:44:42.830Z,35.43
2019-02-25T02:45:34.015Z,35.43
2019-02-25T02:46:23.574Z,35.21
2019-02-25T02:47:37.469Z,35.14
2019-02-25T02:48:19.099Z,35.14
2019-02-25T02:49:01.140Z,35.04
2019-02-25T02:49:36.824Z,35.09
2019-02-25T02:50:15.608Z,34.87
2019-02-25T02:50:51.226Z,34.72
2019-02-25T02:51:26.943Z,34.65
2019-02-25T02:52:02.345Z,34.53
2019-02-25T02:52:37.741Z,34.60
2019-02-25T02:53:13.398Z,34.72
2019-02-25T02:53:48.787Z,34.59
2019-02-25T02:54:24.503Z,34.50
2019-02-25T02:55:00.481Z,34.70
2019-02-25T02:55:35.891Z,34.80
2019-02-25T02:56:11.294Z,34.88
2019-02-25T02:56:46.701Z,34.88
2019-02-25T02:57:22.093Z,34.98
2019-02-25T02:57:58.116Z,35.10
2019-02-25T02:58:33.472Z,35.13
2019-02-25T02:59:09.238Z,35.21
2019-02-25T02:59:45.242Z,35.30
2019-02-25T03:00:20.665Z,35.33
2019-02-25T03:00:56.075Z,35.22
2019-02-25T03:01:31.524Z,35.33
2019-02-25T03:02:06.944Z,35.49
2019-02-25T03:02:42.880Z,35.71
2019-02-25T03:03:18.541Z,35.84
2019-02-25T03:03:54.527Z,36.00
2019-02-25T03:04:29.934Z,36.19
2019-02-25T03:05:06.323Z,36.42
2019-02-25T03:05:41.800Z,36.60
2019-02-25T03:06:17.247Z,36.60
2019-02-25T03:06:52.903Z,36.56
2019-02-25T03:07:28.528Z,36.92
2019-02-25T03:08:04.242Z,36.92
2019-02-25T03:08:39.820Z,36.80
2019-02-25T03:09:15.901Z,36.95
2019-02-25T03:09:51.557Z,37.11
2019-02-25T03:10:27.212Z,37.18
2019-02-25T03:11:02.631Z,36.96
2019-02-25T03:11:38.020Z,36.96
2019-02-25T03:12:13.419Z,37.15
2019-02-25T03:12:48.917Z,37.27
2019-02-25T03:13:24.298Z,37.28
2019-02-25T03:13:59.791Z,37.47
2019-02-25T03:14:35.175Z,37.56
2019-02-25T03:15:13.393Z,37.61
2019-02-25T03:15:49.055Z,37.68
2019-02-25T03:16:24.700Z,37.71
2019-02-25T03:17:00.108Z,37.54
2019-02-25T03:17:35.746Z,37.62
2019-02-25T03:18:11.166Z,37.71
2019-02-25T03:18:46.576Z,37.74
2019-02-25T03:19:22.019Z,37.72
2019-02-25T03:19:57.452Z,37.59
2019-02-25T03:20:32.948Z,37.31
2019-02-25T03:21:08.353Z,37.38
2019-02-25T03:21:44.027Z,37.34
2019-02-25T03:22:19.524Z,37.50
2019-02-25T03:22:54.934Z,37.56
2019-02-25T03:23:30.342Z,37.46
2019-02-25T03:24:05.779Z,37.54
2019-02-25T03:24:41.467Z,37.42
2019-02-25T03:25:17.506Z,37.55
2019-02-25T03:25:52.881Z,37.71
2019-02-25T03:26:28.284Z,37.84
2019-02-25T03:27:03.947Z,37.88
2019-02-25T03:27:40.231Z,37.90
2019-02-25T03:28:15.690Z,38.01
2019-02-25T03:28:51.338Z,37.96
2019-02-25T03:29:27.039Z,38.04
2019-02-25T03:30:02.450Z,38.15
2019-02-25T03:30:38.100Z,38.23
2019-02-25T03:31:13.629Z,38.37
2019-02-25T03:31:49.053Z,38.27
2019-02-25T03:32:24.472Z,37.98
2019-02-25T03:32:59.988Z,38.14
2019-02-25T03:33:35.397Z,38.20
2019-02-25T03:34:10.950Z,38.09
2019-02-25T03:34:46.396Z,38.05
2019-02-25T03:35:22.067Z,38.26
2019-02-25T03:35:57.478Z,38.47
2019-02-25T03:36:32.904Z,38.60
2019-02-25T03:37:08.323Z,38.75
2019-02-25T03:37:43.903Z,38.90
2019-02-25T03:38:19.702Z,39.05
2019-02-25T03:38:55.112Z,39.15
2019-02-25T03:39:30.811Z,39.04
2019-02-25T03:40:06.963Z,38.97
2019-02-25T03:40:42.739Z,38.81
2019-02-25T03:41:18.127Z,38.90
2019-02-25T03:41:53.526Z,38.88
2019-02-25T03:42:29.379Z,39.00
2019-02-25T03:43:04.779Z,39.14
2019-02-25T03:43:40.199Z,39.23
2019-02-25T03:44:15.669Z,39.38
2019-02-25T03:44:51.094Z,39.46
2019-02-25T03:45:27.157Z,39.56
2019-02-25T03:46:02.810Z,39.63
2019-02-25T03:46:38.617Z,39.69
2019-02-25T03:47:14.051Z,39.71
2019-02-25T03:47:49.827Z,39.83
2019-02-25T03:48:25.233Z,39.93
2019-02-25T03:49:00.651Z,39.95
2019-02-25T03:49:36.356Z,39.97
2019-02-25T03:50:11.777Z,40.07
2019-02-25T03:50:47.477Z,40.15
2019-02-25T03:51:22.880Z,40.29
2019-02-25T03:51:58.262Z,40.35
2019-02-25T03:52:33.991Z,40.42
2019-02-25T03:53:09.516Z,40.53
2019-02-25T03:53:44.969Z,40.59
2019-02-25T03:54:20.367Z,40.67
2019-02-25T03:54:55.804Z,40.71
2019-02-25T03:55:31.496Z,40.76
2019-02-25T03:56:07.131Z,40.85
2019-02-25T03:56:42.838Z,40.90
2019-02-25T03:57:18.233Z,40.92
2019-02-25T03:57:53.722Z,40.92
2019-02-25T03:58:29.118Z,40.94
2019-02-25T03:59:04.800Z,40.77
2019-02-25T03:59:40.331Z,40.82
2019-02-25T04:00:20.499Z,40.89
2019-02-25T04:00:56.181Z,40.95
2019-02-25T04:01:31.570Z,40.96
2019-02-25T04:02:07.122Z,40.99
2019-02-25T04:02:42.823Z,41.02
2019-02-25T04:03:18.515Z,41.02
2019-02-25T04:03:54.245Z,41.02
2019-02-25T04:04:30.358Z,41.06
2019-02-25T04:05:06.589Z,41.08
2019-02-25T04:05:42.008Z,41.06
2019-02-25T04:06:17.729Z,41.07
2019-02-25T04:06:53.164Z,41.10
2019-02-25T04:07:28.512Z,41.21
2019-02-25T04:08:04.161Z,41.19
2019-02-25T04:08:40.011Z,41.19
2019-02-25T04:09:15.681Z,41.12
2019-02-25T04:09:51.333Z,41.12
2019-02-25T04:10:26.775Z,41.16
2019-02-25T04:11:02.794Z,41.34
2019-02-25T04:11:38.186Z,41.37
2019-02-25T04:12:13.628Z,41.35
2019-02-25T04:12:49.059Z,41.39
2019-02-25T04:13:24.469Z,41.39
2019-02-25T04:13:59.876Z,41.42
2019-02-25T04:14:35.578Z,41.35
2019-02-25T04:15:13.239Z,41.36
2019-02-25T04:15:48.650Z,41.34
2019-02-25T04:16:24.321Z,41.37
2019-02-25T04:16:59.714Z,41.40
2019-02-25T04:17:35.373Z,41.54
2019-02-25T04:18:11.078Z,41.78
2019-02-25T04:18:46.544Z,41.89
2019-02-25T04:19:22.486Z,42.07
2019-02-25T04:20:00.500Z,42.29
2019-02-25T04:20:35.279Z,42.39
2019-02-25T04:21:11.060Z,42.54
2019-02-25T04:21:46.463Z,42.68
2019-02-25T04:22:21.870Z,42.74
2019-02-25T04:22:57.849Z,42.64
2019-02-25T04:23:33.536Z,42.68
2019-02-25T04:24:09.329Z,42.84
2019-02-25T04:24:44.844Z,42.99
2019-02-25T04:25:20.542Z,42.93
2019-02-25T04:25:55.952Z,42.95
2019-02-25T04:26:31.599Z,42.79
2019-02-25T04:27:07.283Z,42.98
2019-02-25T04:27:43.007Z,43.00
2019-02-25T04:28:18.721Z,42.90
2019-02-25T04:28:54.107Z,42.97
2019-02-25T04:29:29.779Z,43.05
2019-02-25T04:30:05.818Z,42.97
2019-02-25T04:30:41.213Z,43.01
2019-02-25T04:31:16.667Z,43.02
2019-02-25T04:31:52.087Z,43.02
2019-02-25T04:32:27.726Z,43.10
2019-02-25T04:33:03.485Z,43.10
2019-02-25T04:33:38.891Z,43.08
2019-02-25T04:34:14.378Z,43.07
2019-02-25T04:34:49.733Z,43.07
2019-02-25T04:35:25.168Z,43.13
2019-02-25T04:36:00.586Z,43.03
2019-02-25T04:36:36.248Z,42.79
2019-02-25T04:37:11.728Z,42.65
2019-02-25T04:37:47.136Z,42.75
2019-02-25T04:38:23.123Z,42.71
2019-02-25T04:38:58.811Z,42.79
2019-02-25T04:39:34.448Z,42.67
2019-02-25T04:40:11.276Z,42.69
2019-02-25T04:40:46.723Z,42.74
2019-02-25T04:41:22.114Z,43.00
2019-02-25T04:41:57.770Z,43.08
2019-02-25T04:42:33.194Z,43.09
2019-02-25T04:43:08.656Z,43.05
2019-02-25T04:43:44.425Z,42.97
2019-02-25T04:44:20.081Z,43.06
2019-02-25T04:44:55.596Z,43.14
2019-02-25T04:45:31.015Z,43.09
2019-02-25T04:46:06.411Z,43.08
2019-02-25T04:46:41.852Z,43.07
2019-02-25T04:47:17.580Z,43.04
2019-02-25T04:47:53.310Z,43.00
2019-02-25T04:48:28.979Z,43.01
2019-02-25T04:49:04.369Z,43.01
2019-02-25T04:49:40.187Z,42.95
2019-02-25T04:50:15.742Z,42.89
2019-02-25T04:50:51.138Z,42.73
2019-02-25T04:51:26.800Z,42.67
2019-02-25T04:52:02.479Z,42.69
2019-02-25T04:52:37.977Z,42.86
2019-02-25T04:53:13.355Z,43.02
2019-02-25T04:53:48.767Z,42.96
2019-02-25T04:54:24.183Z,42.96
2019-02-25T04:54:59.586Z,43.21
2019-02-25T04:55:35.042Z,43.15
2019-02-25T04:56:10.948Z,43.16
2019-02-25T04:56:46.463Z,43.16
2019-02-25T04:57:22.110Z,43.29
2019-02-25T04:57:57.518Z,43.30
2019-02-25T04:58:33.212Z,43.35
2019-02-25T04:59:08.661Z,43.35
2019-02-25T04:59:44.368Z,43.42
2019-02-25T05:00:19.861Z,43.42
2019-02-25T05:00:55.239Z,43.37
2019-02-25T05:01:30.650Z,43.38
2019-02-25T05:02:06.162Z,43.34
2019-02-25T05:02:41.603Z,43.29
2019-02-25T05:03:17.555Z,43.35
2019-02-25T05:03:53.568Z,43.27
2019-02-25T05:04:29.218Z,43.37
2019-02-25T05:05:04.798Z,43.30
2019-02-25T05:05:40.323Z,43.34
2019-02-25T05:06:15.755Z,43.37
2019-02-25T05:06:51.458Z,43.45
2019-02-25T05:07:27.128Z,43.54
2019-02-25T05:08:03.134Z,43.45
2019-02-25T05:08:38.542Z,43.52
2019-02-25T05:09:13.975Z,43.40
2019-02-25T05:09:49.470Z,43.38
2019-02-25T05:10:25.098Z,43.43
2019-02-25T05:11:00.574Z,43.42
2019-02-25T05:11:36.787Z,43.44
2019-02-25T05:12:12.249Z,43.51
2019-02-25T05:12:53.251Z,43.59
2019-02-25T05:13:28.907Z,43.70
2019-02-25T05:14:04.307Z,43.69
2019-02-25T05:14:39.991Z,43.78
2019-02-25T05:15:16.747Z,43.96
2019-02-25T05:15:52.187Z,43.98
2019-02-25T05:16:27.606Z,44.09
2019-02-25T05:17:03.343Z,44.17
2019-02-25T05:17:38.757Z,44.26
2019-02-25T05:18:14.448Z,44.35
2019-02-25T05:18:49.859Z,44.28
2019-02-25T05:19:26.053Z,44.16
2019-02-25T05:20:04.561Z,44.29
2019-02-25T05:20:40.018Z,44.26
2019-02-25T05:21:15.555Z,44.39
2019-02-25T05:21:51.258Z,44.75
2019-02-25T05:22:26.925Z,44.68
2019-02-25T05:23:02.602Z,44.50
2019-02-25T05:23:37.994Z,44.59
2019-02-25T05:24:13.708Z,44.60
2019-02-25T05:24:49.443Z,44.62
2019-02-25T05:25:24.908Z,44.57
2019-02-25T05:26:00.386Z,44.61
2019-02-25T05:26:36.078Z,44.70
2019-02-25T05:27:11.798Z,44.66
2019-02-25T05:27:47.217Z,44.85
2019-02-25T05:28:23.188Z,44.91
2019-02-25T05:28:58.572Z,45.02
2019-02-25T05:29:34.252Z,45.06
2019-02-25T05:30:09.960Z,45.13
2019-02-25T05:30:45.416Z,45.16
2019-02-25T05:31:21.356Z,45.03
2019-02-25T05:31:56.881Z,45.02
2019-02-25T05:32:32.314Z,45.10
2019-02-25T05:33:08.826Z,45.20
2019-02-25T05:33:44.247Z,45.11
2019-02-25T05:34:19.649Z,45.10
2019-02-25T05:34:55.311Z,45.05
2019-02-25T05:35:30.834Z,45.09
2019-02-25T05:36:06.228Z,45.14
2019-02-25T05:36:42.022Z,45.09
2019-02-25T05:37:17.432Z,45.05
2019-02-25T05:37:52.916Z,45.09
2019-02-25T05:38:28.557Z,44.75
2019-02-25T05:39:04.958Z,44.87
2019-02-25T05:39:40.379Z,44.99
2019-02-25T05:40:16.056Z,44.96
2019-02-25T05:40:51.491Z,44.98
2019-02-25T05:41:26.892Z,44.88
2019-02-25T05:42:02.297Z,44.88
2019-02-25T05:42:37.687Z,44.97
2019-02-25T05:43:13.110Z,44.97
2019-02-25T05:43:48.508Z,44.97
2019-02-25T05:44:24.193Z,44.95
2019-02-25T05:44:59.579Z,44.91
2019-02-25T05:45:35.010Z,44.90
2019-02-25T05:46:10.431Z,44.93
2019-02-25T05:46:45.835Z,44.86
2019-02-25T05:47:21.235Z,44.66
2019-02-25T05:47:57.040Z,44.51
2019-02-25T05:48:32.542Z,44.42
2019-02-25T05:49:08.260Z,44.47
2019-02-25T05:49:43.701Z,44.49
2019-02-25T05:50:19.142Z,44.53
2019-02-25T05:50:54.650Z,44.53
2019-02-25T05:51:30.338Z,44.52
2019-02-25T05:52:05.732Z,44.45
2019-02-25T05:52:41.155Z,44.49
2019-02-25T05:53:17.156Z,44.50
2019-02-25T05:53:52.581Z,44.49
2019-02-25T05:54:28.254Z,44.48
2019-02-25T05:55:03.700Z,44.36
2019-02-25T05:55:39.148Z,44.37
2019-02-25T05:56:14.622Z,44.34
2019-02-25T05:56:50.020Z,44.32
2019-02-25T05:57:25.699Z,44.26
2019-02-25T05:58:01.347Z,44.27
2019-02-25T05:58:36.836Z,44.22
2019-02-25T05:59:12.326Z,44.17
2019-02-25T05:59:48.092Z,44.25
2019-02-25T06:00:25.473Z,44.27
2019-02-25T06:01:01.195Z,44.33
2019-02-25T06:01:36.705Z,44.39
2019-02-25T06:02:12.448Z,44.48
2019-02-25T06:02:47.846Z,44.51
2019-02-25T06:03:23.244Z,44.57
2019-02-25T06:03:58.886Z,44.62
2019-02-25T06:04:34.291Z,44.78
2019-02-25T06:05:09.957Z,44.81
2019-02-25T06:05:45.671Z,44.88
2019-02-25T06:06:21.074Z,44.96
2019-02-25T06:06:56.545Z,45.07
2019-02-25T06:07:31.962Z,45.18
2019-02-25T06:08:07.377Z,45.28
2019-02-25T06:08:43.075Z,45.17
2019-02-25T06:09:18.461Z,45.22
2019-02-25T06:09:54.447Z,45.34
2019-02-25T06:10:29.850Z,45.37
2019-02-25T06:11:05.612Z,45.34
2019-02-25T06:11:41.019Z,45.42
2019-02-25T06:12:16.853Z,45.52
2019-02-25T06:12:52.499Z,45.50
2019-02-25T06:13:27.958Z,45.45
2019-02-25T06:14:03.508Z,45.54
2019-02-25T06:14:38.924Z,45.56
2019-02-25T06:15:15.386Z,45.62
2019-02-25T06:15:51.496Z,45.76
2019-02-25T06:16:26.885Z,46.03
2019-02-25T06:17:02.262Z,45.97
2019-02-25T06:17:37.928Z,45.98
2019-02-25T06:18:13.608Z,46.16
2019-02-25T06:18:49.008Z,46.27
2019-02-25T06:19:24.398Z,46.31
2019-02-25T06:20:00.157Z,46.32
2019-02-25T06:20:35.667Z,46.24
2019-02-25T06:21:11.133Z,46.24
2019-02-25T06:21:46.941Z,46.20
2019-02-25T06:22:22.628Z,46.03
2019-02-25T06:22:58.392Z,46.10
2019-02-25T06:23:33.806Z,46.14
2019-02-25T06:24:09.499Z,46.17
2019-02-25T06:24:45.179Z,46.30
2019-02-25T06:25:20.874Z,46.31
2019-02-25T06:25:56.345Z,46.36
2019-02-25T06:26:31.713Z,46.34
2019-02-25T06:27:07.111Z,46.31
2019-02-25T06:27:42.676Z,46.12
2019-02-25T06:28:18.154Z,46.18
2019-02-25T06:28:53.543Z,46.32
2019-02-25T06:29:28.936Z,46.49
2019-02-25T06:30:05.251Z,46.66
2019-02-25T06:30:40.730Z,46.82
2019-02-25T06:31:16.574Z,46.98
2019-02-25T06:31:52.341Z,47.15
2019-02-25T06:32:27.738Z,47.46
2019-02-25T06:33:03.146Z,47.67
2019-02-25T06:33:38.657Z,47.84
2019-02-25T06:34:14.240Z,47.74
2019-02-25T06:34:49.644Z,47.84
2019-02-25T06:35:25.312Z,47.91
2019-02-25T06:36:00.994Z,47.93
2019-02-25T06:36:36.933Z,48.03
2019-02-25T06:37:12.382Z,47.96
2019-02-25T06:37:47.822Z,48.13
2019-02-25T06:38:23.207Z,48.19
2019-02-25T06:38:58.932Z,48.23
2019-02-25T06:39:34.335Z,48.24
2019-02-25T06:40:11.526Z,48.33
2019-02-25T06:40:46.969Z,48.30
2019-02-25T06:41:22.936Z,48.37
2019-02-25T06:41:58.346Z,48.31
2019-02-25T06:42:34.297Z,48.30
2019-02-25T06:43:09.782Z,48.46
2019-02-25T06:43:45.229Z,48.38
2019-02-25T06:44:21.218Z,48.30
2019-02-25T06:44:56.625Z,48.21
2019-02-25T06:45:32.284Z,48.20
2019-02-25T06:46:07.723Z,48.18
2019-02-25T06:46:43.225Z,48.15
2019-02-25T06:47:18.896Z,48.14
2019-02-25T06:47:54.302Z,48.10
2019-02-25T06:48:29.962Z,48.19
2019-02-25T06:49:05.612Z,48.21
2019-02-25T06:49:41.048Z,48.21
2019-02-25T06:50:16.687Z,48.23
2019-02-25T06:50:52.103Z,48.13
2019-02-25T06:51:27.784Z,48.10
2019-02-25T06:52:03.449Z,48.13
2019-02-25T06:52:39.449Z,48.21
2019-02-25T06:53:14.897Z,47.99
2019-02-25T06:53:50.379Z,48.05
2019-02-25T06:54:25.767Z,48.18
2019-02-25T06:55:01.187Z,48.22
2019-02-25T06:55:37.031Z,48.21
2019-02-25T06:56:12.888Z,48.19
2019-02-25T06:56:48.651Z,48.17
2019-02-25T06:57:24.051Z,48.16
2019-02-25T06:57:59.730Z,48.15
2019-02-25T06:58:35.226Z,48.04
2019-02-25T06:59:10.656Z,47.99
2019-02-25T06:59:46.709Z,48.01
2019-02-25T07:00:22.387Z,47.94
2019-02-25T07:00:57.790Z,47.93
2019-02-25T07:01:33.529Z,48.00
2019-02-25T07:02:08.972Z,48.07
2019-02-25T07:02:44.718Z,48.13
2019-02-25T07:03:20.119Z,48.18
2019-02-25T07:04:13.118Z,48.11
2019-02-25T07:04:54.137Z,48.16
2019-02-25T07:06:00.778Z,48.32
2019-02-25T07:06:47.302Z,48.25
2019-02-25T07:07:39.896Z,48.21
2019-02-25T07:08:33.032Z,48.20
2019-02-25T07:09:21.963Z,48.41
2019-02-25T07:10:16.465Z,48.52
2019-02-25T07:10:56.514Z,48.40
2019-02-25T07:11:54.258Z,48.29
2019-02-25T07:12:37.210Z,48.19
2019-02-25T07:13:34.717Z,48.31
2019-02-25T07:14:37.451Z,48.37
2019-02-25T07:15:30.356Z,48.29
2019-02-25T07:16:23.723Z,48.28
2019-02-25T07:17:18.121Z,48.26
2019-02-25T07:18:18.621Z,48.08
2019-02-25T07:19:11.302Z,48.08
2019-02-25T07:20:08.440Z,48.14
2019-02-25T07:20:59.653Z,48.16
2019-02-25T07:21:49.129Z,48.25
2019-02-25T07:22:49.650Z,48.31
2019-02-25T07:23:42.468Z,48.27
2019-02-25T07:24:55.220Z,47.98
2019-02-25T07:25:52.514Z,47.86
2019-02-25T07:26:35.961Z,47.84
2019-02-25T07:27:28.493Z,47.79
2019-02-25T07:28:20.080Z,47.72
2019-02-25T07:29:05.866Z,47.65
2019-02-25T07:30:01.246Z,47.42
2019-02-25T07:30:53.959Z,47.14
2019-02-25T07:31:44.518Z,46.83
2019-02-25T07:32:30.782Z,46.62
2019-02-25T07:33:15.784Z,46.45
2019-02-25T07:34:10.414Z,46.60
2019-02-25T07:34:56.348Z,46.58
2019-02-25T07:35:46.187Z,46.13
2019-02-25T07:36:43.583Z,45.95
2019-02-25T07:37:46.949Z,45.86
2019-02-25T07:38:39.769Z,45.77
2019-02-25T07:39:42.198Z,45.85
2019-02-25T07:40:42.352Z,45.77
2019-02-25T07:41:33.996Z,45.77
2019-02-25T07:42:32.016Z,45.80
2019-02-25T07:43:26.365Z,45.80
2019-02-25T07:44:21.930Z,45.73
2019-02-25T07:45:16.333Z,45.48
2019-02-25T07:45:59.577Z,44.97
2019-02-25T07:47:03.061Z,44.63
2019-02-25T07:48:00.487Z,44.46
2019-02-25T07:48:53.442Z,44.42
2019-02-25T07:50:02.936Z,43.85
2019-02-25T07:50:51.298Z,43.49
2019-02-25T07:51:38.504Z,43.25
2019-02-25T07:52:22.438Z,43.28
2019-02-25T07:53:13.520Z,43.07
2019-02-25T07:54:10.792Z,42.97
2019-02-25T07:55:06.540Z,42.50
2019-02-25T07:56:02.703Z,42.06
2019-02-25T07:56:55.735Z,41.56
2019-02-25T07:57:43.229Z,41.62
2019-02-25T07:58:27.137Z,41.31
2019-02-25T07:59:11.632Z,41.23
2019-02-25T07:59:55.737Z,40.96